Time;durP1;ratioP1;P1;durP2;ratioP2;P2;SDS_P1;SDS_P2;PMS_P1;PMS_P2;Temp;Humidity;BMP_temperature;BMP_pressure;BME280_temperature;BME280_humidity;BME280_pressure;Samples;Min_cycle;Max_cycle;Signal;HPM_P1;HPM_P2
2022/04/01 00:01:08;;;;;;;15.70;14.20;;;;;;;7.21;90.80;96725.38;4974377;28;102610;-64
2022/04/01 00:03:36;;;;;;;15.77;14.27;;;;;;;6.63;92.24;96718.34;4974577;28;103665;-65
2022/04/01 00:06:08;;;;;;;15.80;14.30;;;;;;;6.51;94.29;96719.44;4975550;28;105066;-65
2022/04/01 00:08:36;;;;;;;15.60;14.20;;;;;;;6.69;93.67;96723.06;4975061;28;103260;-64
2022/04/01 00:11:04;;;;;;;15.23;13.85;;;;;;;6.48;92.54;96724.94;4972123;28;102950;-65
2022/04/01 00:13:32;;;;;;;15.73;14.30;;;;;;;6.33;94.89;96725.31;4974846;28;102697;-65
2022/04/01 00:16:00;;;;;;;15.27;13.98;;;;;;;6.55;93.53;96723.44;4971939;28;104006;-65
2022/04/01 00:18:29;;;;;;;14.10;12.90;;;;;;;6.83;92.60;96731.38;4973962;28;103370;-65
2022/04/01 00:20:57;;;;;;;14.73;13.43;;;;;;;6.34;93.20;96724.31;4974685;28;102871;-64
2022/04/01 00:23:30;;;;;;;15.50;14.15;;;;;;;6.14;94.23;96727.84;4972601;28;103323;-66
2022/04/01 00:25:58;;;;;;;14.00;12.70;;;;;;;6.46;94.09;96719.81;4971050;28;103253;-64
2022/04/01 00:28:26;;;;;;;15.13;13.83;;;;;;;6.21;94.64;96728.13;4973578;28;103187;-64
2022/04/01 00:30:56;;;;;;;23.23;21.23;;;;;;;6.45;93.64;96714.72;4970084;28;102666;-65
2022/04/01 00:33:27;;;;;;;15.77;14.37;;;;;;;6.33;93.42;96727.94;4972658;28;103300;-65
2022/04/01 00:35:55;;;;;;;14.65;13.18;;;;;;;5.99;94.67;96728.31;4970488;28;103755;-63
2022/04/01 00:38:23;;;;;;;15.10;13.80;;;;;;;6.07;96.49;96731.94;4971589;28;103229;-64
2022/04/01 00:40:52;;;;;;;14.63;13.38;;;;;;;6.07;97.14;96726.69;4970945;28;102921;-63
2022/04/01 00:43:27;;;;;;;13.27;12.18;;;;;;;6.32;96.16;96726.25;4973176;28;102774;-64
2022/04/01 00:45:55;;;;;;;14.30;13.10;;;;;;;5.96;95.96;96729.38;4978013;28;103567;-64
2022/04/01 00:48:24;;;;;;;13.15;12.05;;;;;;;6.10;96.74;96720.34;4977624;28;103258;-65
2022/04/01 00:50:52;;;;;;;13.17;12.07;;;;;;;5.88;97.94;96721.34;4975465;28;102854;-63
2022/04/01 00:53:22;;;;;;;13.15;12.05;;;;;;;5.47;97.96;96732.66;4975287;28;104215;-63
2022/04/01 00:55:52;;;;;;;11.93;10.93;;;;;;;5.62;96.65;96727.91;4977114;28;103266;-62
2022/04/01 00:58:20;;;;;;;12.48;11.48;;;;;;;5.56;96.31;96731.88;4976306;28;103238;-63
2022/04/01 01:00:49;;;;;;;12.23;11.23;;;;;;;5.77;96.54;96731.88;4974564;28;102716;-63
2022/04/01 01:03:20;;;;;;;12.57;11.53;;;;;;;6.06;96.57;96730.28;4974109;28;102835;-63
2022/04/01 01:05:49;;;;;;;13.43;12.32;;;;;;;5.71;97.68;96729.75;4975866;28;103732;-65
2022/04/01 01:08:18;;;;;;;14.57;13.38;;;;;;;5.50;100.00;96721.88;4977794;28;103217;-63
2022/04/01 01:10:47;;;;;;;12.60;11.50;;;;;;;5.91;96.53;96723.72;4976411;28;102663;-63
2022/04/01 01:13:17;;;;;;;12.33;11.33;;;;;;;6.34;95.24;96724.31;4974860;28;103524;-62
2022/04/01 01:15:46;;;;;;;13.17;12.07;;;;;;;5.92;95.36;96717.53;4972314;28;104112;-64
2022/04/01 01:18:16;;;;;;;13.75;12.55;;;;;;;5.49;97.07;96722.03;4977226;28;103468;-63
2022/04/01 01:20:45;;;;;;;13.32;12.23;;;;;;;5.76;98.39;96723.19;4972661;28;102581;-63
2022/04/01 01:23:13;;;;;;;12.80;11.73;;;;;;;5.77;96.78;96724.84;4976550;28;102705;-63
2022/04/01 01:25:43;;;;;;;13.50;12.30;;;;;;;6.08;93.99;96717.88;4974573;28;105408;-63
2022/04/01 01:28:13;;;;;;;14.02;12.82;;;;;;;6.16;93.68;96723.28;4975825;28;103205;-63
2022/04/01 01:30:43;;;;;;;12.77;11.67;;;;;;;6.01;93.69;96721.97;4975813;28;102898;-64
2022/04/01 01:33:11;;;;;;;12.50;11.45;;;;;;;5.84;94.37;96717.28;4976382;28;104070;-64
2022/04/01 01:35:39;;;;;;;14.03;12.83;;;;;;;5.84;96.09;96719.91;4974167;28;104217;-63
2022/04/01 01:38:08;;;;;;;13.73;12.57;;;;;;;5.34;96.93;96715.44;4974594;28;103177;-65
2022/04/01 01:40:37;;;;;;;12.27;11.27;;;;;;;5.75;98.47;96725.94;4978125;28;102772;-64
2022/04/01 01:43:06;;;;;;;11.70;10.80;;;;;;;6.28;94.75;96719.63;4974873;28;103034;-64
2022/04/01 01:45:37;;;;;;;11.13;10.23;;;;;;;6.24;92.70;96715.59;4975140;28;104289;-63
2022/04/01 01:48:05;;;;;;;13.03;11.93;;;;;;;5.88;93.10;96721.34;4975913;28;103245;-65
2022/04/01 01:56:05;;;;;;;13.00;11.80;;;;;;;5.70;95.45;96722.84;4975902;28;104143;-64
2022/04/01 01:58:36;;;;;;;13.10;11.97;;;;;;;5.80;96.24;96719.34;4974579;28;105384;-65
2022/04/01 02:01:05;;;;;;;12.50;11.50;;;;;;;5.82;94.75;96713.97;4971232;28;102799;-63
2022/04/01 02:03:33;;;;;;;12.60;11.50;;;;;;;5.44;95.95;96713.72;4971448;28;104058;-65
2022/04/01 02:06:02;;;;;;;12.82;11.73;;;;;;;5.62;97.41;96714.81;4975532;28;103759;-65
2022/04/01 02:08:30;;;;;;;12.43;11.43;;;;;;;5.65;94.82;96710.16;4973960;28;103194;-64
2022/04/01 02:10:59;;;;;;;11.85;10.85;;;;;;;5.88;93.61;96715.28;4976457;28;103142;-64
2022/04/01 02:13:29;;;;;;;11.93;10.93;;;;;;;6.10;94.18;96715.94;4975134;28;104038;-63
2022/04/01 02:15:59;;;;;;;12.93;11.82;;;;;;;5.68;95.99;96716.91;4976379;28;103205;-64
2022/04/01 02:18:30;;;;;;;13.40;12.30;;;;;;;5.59;94.76;96720.28;4972407;28;105591;-63
2022/04/01 02:20:59;;;;;;;12.68;11.68;;;;;;;5.75;95.57;96707.59;4976092;28;102817;-65
2022/04/01 02:23:27;;;;;;;13.57;12.43;;;;;;;5.64;96.26;96708.47;4976474;28;104033;-64
2022/04/01 02:25:56;;;;;;;13.55;12.40;;;;;;;5.63;95.78;96713.84;4975721;28;104119;-64
2022/04/01 02:28:25;;;;;;;13.07;12.07;;;;;;;5.63;95.44;96716.47;4977224;28;103295;-65
2022/04/01 02:30:54;;;;;;;13.02;12.00;;;;;;;5.43;96.07;96712.91;4975369;28;102685;-63
2022/04/01 02:33:44;;;;;;;13.80;12.70;;;;;;;5.44;95.29;96711.13;4977906;28;103589;-64
2022/04/01 02:36:12;;;;;;;14.73;13.52;;;;;;;5.16;97.79;96716.00;4975937;28;103231;-64
2022/04/01 02:38:42;;;;;;;14.82;13.48;;;;;;;5.31;97.36;96718.28;4976625;28;103430;-64
2022/04/01 02:41:12;;;;;;;13.70;12.50;;;;;;;5.17;98.56;96717.66;4976083;28;103180;-63
2022/04/01 02:43:41;;;;;;;12.55;11.55;;;;;;;5.36;95.30;96713.53;4975652;28;104089;-63
2022/04/01 02:46:10;;;;;;;11.47;10.57;;;;;;;5.74;95.66;96719.03;4972823;28;103993;-63
2022/04/01 02:48:50;;;;;;;12.30;11.30;;;;;;;5.59;93.89;96721.13;4973529;28;104926;-64
2022/04/01 02:51:27;;;;;;;11.98;11.00;;;;;;;5.57;94.74;96715.19;4975018;28;102559;-63
2022/04/01 02:54:04;;;;;;;12.20;11.20;;;;;;;5.44;95.78;96717.19;4970697;28;102734;-64
2022/04/01 02:56:33;;;;;;;12.40;11.40;;;;;;;4.98;97.14;96725.34;4970233;28;104109;-63
2022/04/01 02:59:02;;;;;;;11.05;10.15;;;;;;;5.23;97.30;96713.69;4974054;28;104423;-64
2022/04/01 03:01:30;;;;;;;10.18;9.38;;;;;;;5.13;96.85;96724.09;4974613;28;102630;-63
2022/04/01 03:04:01;;;;;;;11.33;10.33;;;;;;;5.08;96.08;96725.44;4972462;28;103127;-66
2022/04/01 03:06:34;;;;;;;11.77;10.77;;;;;;;4.97;97.84;96723.66;4970178;28;103912;-64
2022/04/01 03:09:02;;;;;;;11.45;10.45;;;;;;;5.37;95.09;96728.28;4973480;28;103301;-65
2022/04/01 03:11:30;;;;;;;11.20;10.30;;;;;;;5.74;94.17;96724.28;4974085;28;102618;-63
2022/04/01 03:13:58;;;;;;;11.57;10.57;;;;;;;5.54;94.07;96730.34;4972658;28;103914;-64
2022/04/01 03:16:58;;;;;;;12.75;11.65;;;;;;;5.04;97.03;96734.47;4950962;28;103167;-64
2022/04/01 03:19:28;;;;;;;13.48;12.38;;;;;;;5.08;96.97;96736.72;4973442;28;103442;-64
2022/04/01 03:21:57;;;;;;;13.98;12.77;;;;;;;5.10;97.49;96729.59;4972047;28;103899;-64
2022/04/01 03:24:25;;;;;;;12.48;11.48;;;;;;;5.54;96.82;96727.72;4978161;28;103593;-63
2022/04/01 03:26:53;;;;;;;11.43;10.52;;;;;;;5.96;95.03;96734.63;4976485;28;105440;-64
2022/04/01 03:29:21;;;;;;;12.85;11.85;;;;;;;5.61;94.73;96723.66;4971532;28;105910;-64
2022/04/01 03:31:51;;;;;;;13.82;12.63;;;;;;;5.63;95.42;96732.19;4974293;28;102525;-65
2022/04/01 03:34:20;;;;;;;13.75;12.57;;;;;;;5.50;96.69;96739.41;4971834;28;104080;-65
2022/04/01 03:36:50;;;;;;;14.13;12.93;;;;;;;5.34;97.07;96736.38;4971586;28;105431;-64
2022/04/01 03:39:19;;;;;;;13.60;12.52;;;;;;;5.52;96.94;96737.50;4972584;28;104377;-64
2022/04/01 03:41:53;;;;;;;13.30;12.30;;;;;;;5.82;93.93;96742.78;4972744;28;102667;-64
2022/04/01 03:44:24;;;;;;;12.45;11.45;;;;;;;5.71;95.19;96742.88;4972360;28;104070;-65
2022/04/01 03:47:22;;;;;;;14.80;13.57;;;;;;;5.11;97.77;96744.31;4970980;28;104236;-64
2022/04/01 03:49:52;;;;;;;12.98;11.98;;;;;;;5.64;97.67;96744.34;4975366;28;103226;-64
2022/04/01 03:52:25;;;;;;;14.07;12.98;;;;;;;5.23;97.00;96740.72;4971307;28;103198;-63
2022/04/01 03:54:56;;;;;;;15.35;13.95;;;;;;;4.99;100.00;96747.09;4971357;28;102795;-64
2022/04/01 03:57:49;;;;;;;14.30;13.13;;;;;;;5.32;98.73;96748.78;4970047;28;104113;-63
2022/04/01 04:00:35;;;;;;;13.60;12.50;;;;;;;5.05;99.46;96747.44;4975915;28;103436;-63
2022/04/01 04:03:08;;;;;;;14.85;13.65;;;;;;;4.83;100.00;96747.50;4973323;28;102753;-63
2022/04/01 04:05:38;;;;;;;14.87;13.67;;;;;;;4.61;100.00;96742.31;4972308;28;104215;-62
2022/04/01 04:08:11;;;;;;;14.05;12.93;;;;;;;4.85;100.00;96750.84;4977030;28;103782;-62
2022/04/01 04:10:41;;;;;;;11.65;10.75;;;;;;;5.50;99.66;96755.94;4972460;28;103836;-67
2022/04/01 04:13:25;;;;;;;11.57;10.63;;;;;;;5.37;98.67;96751.84;4970153;28;102763;-66
2022/04/01 04:16:05;;;;;;;12.90;11.80;;;;;;;5.22;98.18;96754.75;4970596;28;103117;-66
2022/04/01 04:18:43;;;;;;;12.63;11.52;;;;;;;5.03;99.87;96764.22;4976398;28;103240;-62
2022/04/01 04:21:24;;;;;;;11.20;10.40;;;;;;;5.46;99.39;96765.03;4974989;28;103421;-62
2022/04/01 04:23:58;;;;;;;11.55;10.63;;;;;;;5.39;97.08;96763.03;4981452;28;102643;-66
2022/04/01 04:26:32;;;;;;;12.60;11.63;;;;;;;4.94;100.00;96757.94;4974732;28;102759;-65
2022/04/01 04:29:06;;;;;;;13.20;12.10;;;;;;;4.61;100.00;96765.84;4975001;28;104896;-65
2022/04/01 04:31:48;;;;;;;11.20;10.27;;;;;;;5.18;100.00;96763.81;4975629;28;105158;-66
2022/04/01 04:34:21;;;;;;;11.87;10.97;;;;;;;4.82;99.70;96769.41;4975741;28;102814;-66
2022/04/01 04:36:52;;;;;;;12.10;11.10;;;;;;;4.84;100.00;96764.03;4977745;28;103371;-65
2022/04/01 04:39:30;;;;;;;11.10;10.30;;;;;;;4.55;100.00;96769.78;4976773;28;105214;-65
2022/04/01 04:41:59;;;;;;;11.20;10.30;;;;;;;4.69;100.00;96766.91;4974197;28;103519;-67
2022/04/01 04:44:29;;;;;;;10.93;10.03;;;;;;;4.52;100.00;96771.81;4974580;28;102813;-66
2022/04/01 04:46:58;;;;;;;10.80;10.00;;;;;;;4.69;100.00;96774.75;4975134;28;102999;-65
2022/04/01 04:49:29;;;;;;;10.67;9.87;;;;;;;4.73;100.00;96779.75;4981869;28;103336;-66
2022/04/01 04:52:00;;;;;;;10.48;9.68;;;;;;;5.03;100.00;96774.69;4974499;28;104072;-65
2022/04/01 04:54:32;;;;;;;11.00;10.15;;;;;;;4.19;100.00;96772.63;4966101;28;102695;-65
2022/04/01 04:57:21;;;;;;;10.13;9.27;;;;;;;4.56;100.00;96787.13;4968861;28;103561;-64
2022/04/01 04:59:51;;;;;;;10.65;9.75;;;;;;;4.31;100.00;96781.31;4974930;28;104722;-66
2022/04/01 05:02:44;;;;;;;9.90;9.10;;;;;;;4.57;100.00;96788.81;4972365;28;103315;-66
2022/04/01 05:05:26;;;;;;;10.65;9.75;;;;;;;4.27;100.00;96790.31;4977041;28;103235;-67
2022/04/01 05:08:32;;;;;;;10.30;9.50;;;;;;;4.47;100.00;96787.00;4978328;28;102759;-66
2022/04/01 05:11:35;;;;;;;10.90;10.00;;;;;;;4.49;100.00;96787.75;4976805;28;104032;-66
2022/04/01 05:14:13;;;;;;;9.73;8.95;;;;;;;4.70;100.00;96799.13;4988790;28;103036;-65
2022/04/01 05:16:52;;;;;;;10.15;9.35;;;;;;;4.46;100.00;96798.44;4975837;28;102806;-65
2022/04/01 05:19:26;;;;;;;9.80;9.00;;;;;;;4.46;100.00;96801.06;4976789;28;104039;-64
2022/04/01 05:22:01;;;;;;;9.32;8.63;;;;;;;4.35;100.00;96803.66;4976144;28;104277;-65
2022/04/01 05:24:38;;;;;;;9.53;8.80;;;;;;;4.13;100.00;96806.25;4974102;28;105359;-65
2022/04/01 05:27:18;;;;;;;9.40;8.60;;;;;;;4.28;100.00;96815.53;4974948;28;102681;-65
2022/04/01 05:30:21;;;;;;;8.25;7.55;;;;;;;4.09;100.00;96819.56;4974414;28;103308;-65
2022/04/01 05:33:06;;;;;;;7.30;6.70;;;;;;;3.94;100.00;96810.25;4976229;28;103938;-66
2022/04/01 05:35:37;;;;;;;7.25;6.72;;;;;;;4.47;100.00;96813.16;4971531;28;105350;-65
2022/04/01 05:38:08;;;;;;;7.15;6.55;;;;;;;4.48;100.00;96818.28;4973161;28;102821;-65
2022/04/01 05:40:39;;;;;;;6.77;6.27;;;;;;;4.30;99.33;96816.22;4976964;28;102798;-65
2022/04/01 05:43:14;;;;;;;6.22;5.78;;;;;;;4.54;100.00;96830.06;4977588;28;103371;-65
2022/04/01 05:46:12;;;;;;;6.90;6.22;;;;;;;4.39;98.12;96824.22;4961013;28;103151;-66
2022/04/01 05:48:42;;;;;;;6.25;5.75;;;;;;;4.70;97.39;96835.75;4975342;28;102903;-67
2022/04/01 05:51:14;;;;;;;6.90;6.40;;;;;;;4.26;98.71;96833.13;4976956;28;103114;-67
2022/04/01 05:53:50;;;;;;;7.13;6.47;;;;;;;3.97;100.00;96840.53;4975124;28;104147;-67
2022/04/01 05:56:19;;;;;;;7.40;6.80;;;;;;;4.23;100.00;96846.41;4973005;28;103086;-67
2022/04/01 05:58:49;;;;;;;7.20;6.60;;;;;;;4.31;100.00;96844.88;4968039;28;102682;-65
2022/04/01 06:01:33;;;;;;;7.82;7.22;;;;;;;4.11;99.98;96845.56;4975961;28;102973;-66
2022/04/01 06:04:23;;;;;;;8.20;7.55;;;;;;;4.37;99.01;96854.03;4975395;28;103299;-68
2022/04/01 06:07:00;;;;;;;8.17;7.57;;;;;;;4.20;99.91;96851.88;4973964;28;105457;-67
2022/04/01 06:09:36;;;;;;;7.68;7.07;;;;;;;4.78;99.34;96854.28;4972759;28;103627;-67
2022/04/01 06:12:19;;;;;;;7.68;7.00;;;;;;;4.45;96.64;96856.91;4974105;28;102746;-67
2022/04/01 06:15:19;;;;;;;7.68;7.07;;;;;;;4.55;97.62;96857.84;4939233;28;103250;-67
2022/04/01 06:18:19;;;;;;;7.32;6.72;;;;;;;4.27;99.18;96858.28;4974757;28;103140;-67
2022/04/01 06:20:49;;;;;;;7.35;6.75;;;;;;;4.35;98.89;96855.94;4975832;28;102875;-67
2022/04/01 06:23:28;;;;;;;6.67;6.17;;;;;;;4.54;99.85;96861.44;4974075;28;103274;-65
2022/04/01 06:26:00;;;;;;;6.72;6.22;;;;;;;4.28;99.85;96865.19;4972749;28;104260;-66
2022/04/01 06:28:31;;;;;;;6.45;6.00;;;;;;;4.82;98.58;96865.34;4974579;28;104965;-66
2022/04/01 06:31:06;;;;;;;8.02;7.43;;;;;;;4.24;99.81;96859.34;4975527;28;102957;-67
2022/04/01 06:33:57;;;;;;;6.40;5.90;;;;;;;4.22;99.59;96876.09;4975703;28;103711;-67
2022/04/01 06:36:39;;;;;;;5.90;5.50;;;;;;;4.45;99.59;96872.59;4974876;28;103734;-67
2022/04/01 06:39:10;;;;;;;7.03;6.53;;;;;;;4.08;99.43;96870.16;4972482;28;105406;-67
2022/04/01 06:41:45;;;;;;;6.70;6.10;;;;;;;4.30;100.00;96878.97;4977164;28;103028;-65
2022/04/01 06:44:42;;;;;;;7.17;6.60;;;;;;;4.29;100.00;96880.78;4975999;28;102760;-67
2022/04/01 06:47:47;;;;;;;6.75;6.25;;;;;;;4.48;99.02;96882.81;4943899;28;103513;-66
2022/04/01 06:50:17;;;;;;;5.72;5.32;;;;;;;4.02;100.00;96881.06;4970799;28;103428;-66
2022/04/01 06:53:03;;;;;;;5.10;4.70;;;;;;;4.25;98.67;96871.50;4976941;28;102876;-66
2022/04/01 06:55:49;;;;;;;4.70;4.30;;;;;;;4.27;98.94;96890.50;4974053;28;103536;-66
2022/04/01 06:58:26;;;;;;;5.20;4.80;;;;;;;4.49;98.43;96895.75;4974903;28;104267;-65
2022/04/01 07:01:03;;;;;;;5.18;4.78;;;;;;;4.20;98.49;96878.00;4971378;28;103340;-65
2022/04/01 07:03:37;;;;;;;5.10;4.70;;;;;;;4.46;97.96;96889.97;4970962;28;102623;-65
2022/04/01 07:06:06;;;;;;;5.28;4.88;;;;;;;4.49;98.13;96880.06;4969791;28;104108;-66
2022/04/01 07:08:35;;;;;;;7.13;6.57;;;;;;;4.57;97.58;96877.72;4974846;28;103200;-68
2022/04/01 07:11:07;;;;;;;7.95;7.43;;;;;;;4.65;96.21;96890.22;4973772;28;104342;-68
2022/04/01 07:13:36;;;;;;;7.90;7.40;;;;;;;4.41;96.95;96890.28;4974615;28;102644;-67
2022/04/01 07:16:06;;;;;;;5.60;5.20;;;;;;;5.08;95.83;96885.91;4972508;28;103773;-68
2022/04/01 07:18:36;;;;;;;5.95;5.55;;;;;;;5.08;93.81;96891.13;4975164;28;103567;-68
2022/04/01 07:21:04;;;;;;;6.23;5.77;;;;;;;5.18;93.99;96888.63;4976725;28;103279;-68
2022/04/01 07:23:36;;;;;;;10.03;9.23;;;;;;;4.64;95.51;96885.91;4975639;28;102858;-68
2022/04/01 07:26:06;;;;;;;11.68;10.68;;;;;;;4.42;95.61;96893.75;4973167;28;104109;-66
2022/04/01 07:28:34;;;;;;;8.43;7.72;;;;;;;4.75;96.17;96898.16;4975873;28;103271;-66
2022/04/01 07:34:23;;;;;;;8.07;7.47;;;;;;;4.76;93.89;96902.47;4974684;28;102557;-66
2022/04/01 07:36:51;;;;;;;7.13;6.53;;;;;;;4.52;96.64;96897.34;4976904;28;104350;-66
2022/04/01 07:39:20;;;;;;;7.50;7.00;;;;;;;4.88;96.25;96901.50;4973861;28;104228;-66
2022/04/01 07:41:48;;;;;;;7.07;6.53;;;;;;;4.59;95.53;96901.13;4975835;28;103171;-66
2022/04/01 07:44:16;;;;;;;6.03;5.63;;;;;;;5.05;95.43;96891.38;4974366;28;102935;-66
2022/04/01 07:46:44;;;;;;;6.32;5.82;;;;;;;5.05;93.01;96901.03;4975334;28;103882;-68
2022/04/01 07:49:14;;;;;;;8.38;7.70;;;;;;;5.18;94.29;96904.34;4970918;28;103243;-68
2022/04/01 07:52:07;;;;;;;10.07;9.27;;;;;;;4.75;96.59;96909.47;4972723;28;103236;-68
2022/04/01 07:54:46;;;;;;;17.57;16.17;;;;;;;4.49;97.08;96906.22;4974214;28;102677;-67
2022/04/01 07:57:16;;;;;;;16.05;14.75;;;;;;;4.27;96.73;96910.56;4974916;28;102737;-68
2022/04/01 07:59:45;;;;;;;15.90;14.60;;;;;;;4.67;96.51;96907.44;4974560;28;103364;-66
2022/04/01 08:02:13;;;;;;;16.90;15.50;;;;;;;4.30;97.48;96907.72;4974090;28;103283;-68
2022/04/01 08:04:41;;;;;;;16.83;15.43;;;;;;;4.42;97.82;96906.81;4970758;28;102656;-67
2022/04/01 08:07:16;;;;;;;16.02;14.73;;;;;;;4.79;97.91;96913.53;4976379;28;102837;-68
2022/04/01 08:09:44;;;;;;;16.20;14.88;;;;;;;5.04;96.05;96915.91;4972150;28;103378;-68
2022/04/01 08:12:12;;;;;;;17.07;15.67;;;;;;;4.92;95.13;96919.47;4974411;28;103214;-68
2022/04/01 08:14:41;;;;;;;16.05;14.75;;;;;;;4.50;98.18;96927.97;4973906;28;102651;-68
2022/04/01 08:17:11;;;;;;;16.88;15.52;;;;;;;4.61;96.91;96933.22;4974618;28;102884;-66
2022/04/01 08:19:40;;;;;;;18.20;16.70;;;;;;;4.38;96.83;96934.97;4975013;28;103259;-66
2022/04/01 08:22:09;;;;;;;13.23;12.13;;;;;;;4.13;97.21;96931.69;4976009;28;103253;-67
2022/04/01 08:24:39;;;;;;;19.30;17.70;;;;;;;4.47;96.49;96938.66;4971812;28;103023;-68
2022/04/01 08:27:07;;;;;;;9.57;8.77;;;;;;;4.71;95.88;96942.06;4974251;28;104026;-67
2022/04/01 08:29:36;;;;;;;6.60;6.10;;;;;;;4.21;97.17;96942.41;4971669;28;104032;-68
2022/04/01 08:32:07;;;;;;;6.40;5.90;;;;;;;3.96;98.50;96945.97;4970805;28;103304;-67
2022/04/01 08:34:37;;;;;;;5.70;5.30;;;;;;;4.25;97.85;96946.47;4968691;28;102883;-67
2022/04/01 08:37:06;;;;;;;6.10;5.60;;;;;;;4.12;97.15;96951.78;4972597;28;103952;-67
2022/04/01 08:39:35;;;;;;;6.03;5.53;;;;;;;4.13;97.71;96950.00;4972588;28;103166;-68
2022/04/01 08:42:07;;;;;;;6.15;5.65;;;;;;;3.81;99.28;96955.78;4973017;28;102970;-68
2022/04/01 08:44:41;;;;;;;5.43;4.93;;;;;;;3.61;97.95;96964.22;4972893;28;102852;-68
2022/04/01 08:47:09;;;;;;;5.90;5.40;;;;;;;3.62;98.40;96965.88;4975629;28;102668;-68
2022/04/01 08:49:38;;;;;;;5.90;5.40;;;;;;;3.77;100.00;96970.00;4974614;28;103577;-68
2022/04/01 08:52:07;;;;;;;5.93;5.53;;;;;;;3.79;98.23;96962.09;4973978;28;103255;-69
2022/04/01 08:54:36;;;;;;;5.50;5.10;;;;;;;4.17;96.44;96977.56;4973139;28;102640;-66
2022/04/01 08:57:08;;;;;;;5.87;5.40;;;;;;;4.02;97.31;96976.91;4975638;28;102806;-66
2022/04/01 08:59:38;;;;;;;6.25;5.75;;;;;;;4.00;96.92;96979.63;4972889;28;104125;-66
2022/04/01 09:02:09;;;;;;;6.63;6.13;;;;;;;3.96;99.55;96972.13;4972951;28;103189;-68
2022/04/01 09:04:38;;;;;;;8.02;7.43;;;;;;;3.92;97.54;96979.38;4972373;28;102808;-68
2022/04/01 09:07:11;;;;;;;8.40;7.70;;;;;;;4.21;98.59;96979.00;4974493;28;104048;-67
2022/04/01 09:09:39;;;;;;;8.60;7.90;;;;;;;4.48;95.72;96987.41;4975105;28;104253;-68
2022/04/01 09:12:12;;;;;;;10.07;9.27;;;;;;;3.97;97.25;96985.09;4975492;28;103221;-68
2022/04/01 09:14:49;;;;;;;10.98;10.07;;;;;;;4.24;96.46;96984.81;4975483;28;102788;-68
2022/04/01 09:17:17;;;;;;;9.95;9.15;;;;;;;4.64;96.63;96998.38;4976313;28;103648;-68
2022/04/01 09:19:50;;;;;;;11.10;10.20;;;;;;;4.80;96.16;96993.66;4971991;28;104408;-67
2022/04/01 09:22:20;;;;;;;10.52;9.73;;;;;;;4.71;95.04;96999.59;4976387;28;103242;-67
2022/04/01 09:24:56;;;;;;;10.10;9.20;;;;;;;3.97;99.81;97000.75;4976446;28;102762;-66
2022/04/01 09:27:44;;;;;;;8.20;7.60;;;;;;;4.39;95.13;97003.78;4976090;28;102701;-66
2022/04/01 09:30:16;;;;;;;7.65;7.05;;;;;;;4.31;97.69;97003.50;4975865;28;104012;-66
2022/04/01 09:32:46;;;;;;;6.70;6.20;;;;;;;4.67;96.17;97008.63;4978560;28;103172;-65
2022/04/01 09:35:17;;;;;;;7.07;6.47;;;;;;;3.89;97.56;97010.94;4974064;28;102874;-67
2022/04/01 09:37:47;;;;;;;7.05;6.55;;;;;;;4.24;98.15;97013.56;4976439;28;102733;-66
2022/04/01 09:40:17;;;;;;;7.43;6.82;;;;;;;3.89;98.21;97008.31;4978021;28;103186;-66
2022/04/01 09:42:49;;;;;;;7.68;7.07;;;;;;;3.77;98.77;97019.63;4975076;28;102976;-66
2022/04/01 09:45:21;;;;;;;7.68;7.07;;;;;;;3.91;99.83;97019.50;4975718;28;102675;-66
2022/04/01 09:48:00;;;;;;;10.75;9.75;;;;;;;4.02;99.02;97019.53;4973043;28;103954;-66
2022/04/01 09:50:30;;;;;;;9.00;8.23;;;;;;;3.88;99.49;97017.09;4974087;28;104493;-65
2022/04/01 09:53:08;;;;;;;6.63;6.13;;;;;;;3.71;100.00;97021.84;4977754;28;103224;-66
2022/04/01 09:55:37;;;;;;;5.97;5.50;;;;;;;3.95;99.70;97017.50;4977437;28;102883;-68
2022/04/01 09:58:06;;;;;;;6.40;5.90;;;;;;;4.69;97.80;97012.78;4977553;28;103886;-68
2022/04/01 10:00:38;;;;;;;8.40;7.70;;;;;;;3.92;98.41;97018.56;4975782;28;105037;-64
2022/04/01 10:03:08;;;;;;;6.47;5.97;;;;;;;4.05;99.39;97023.72;4975350;28;104124;-65
2022/04/01 10:05:37;;;;;;;6.80;6.20;;;;;;;3.45;100.00;97031.53;4978497;28;102691;-66
2022/04/01 10:08:08;;;;;;;7.38;6.78;;;;;;;3.54;100.00;97033.47;4973907;28;102916;-65
2022/04/01 10:10:37;;;;;;;7.70;7.10;;;;;;;3.95;99.36;97031.41;4979300;28;104564;-65
2022/04/01 10:13:07;;;;;;;5.85;5.45;;;;;;;4.39;98.72;97035.16;4976497;28;103197;-64
2022/04/01 10:15:38;;;;;;;6.15;5.68;;;;;;;4.52;98.45;97028.91;4974330;28;102940;-66
2022/04/01 10:18:08;;;;;;;5.38;4.88;;;;;;;4.27;95.62;97036.03;4974890;28;102979;-67
2022/04/01 10:20:38;;;;;;;4.82;4.43;;;;;;;3.91;97.32;97040.38;4974078;28;103504;-67
2022/04/01 10:23:08;;;;;;;4.85;4.45;;;;;;;3.58;98.58;97040.16;4974416;28;103224;-68
2022/04/01 10:25:46;;;;;;;4.63;4.20;;;;;;;3.86;98.18;97039.88;4969004;28;102563;-67
2022/04/01 10:28:16;;;;;;;4.97;4.57;;;;;;;3.77;97.30;97037.94;4971400;28;103910;-68
2022/04/01 10:30:53;;;;;;;4.10;3.80;;;;;;;4.28;96.12;97037.72;4971401;28;103625;-68
2022/04/01 10:33:24;;;;;;;4.18;3.88;;;;;;;4.48;94.42;97039.72;4969026;28;104157;-68
2022/04/01 10:35:54;;;;;;;17.42;14.45;;;;;;;4.41;95.94;97039.31;4974026;28;104308;-68
2022/04/01 10:38:28;;;;;;;9.90;8.80;;;;;;;3.67;97.20;97047.38;4973439;28;104260;-68
2022/04/01 10:41:08;;;;;;;7.10;6.50;;;;;;;3.45;100.00;97047.19;4972481;28;104688;-66
2022/04/01 10:43:41;;;;;;;8.10;7.40;;;;;;;3.65;99.55;97046.63;4969364;28;103183;-66
2022/04/01 10:46:12;;;;;;;5.45;5.05;;;;;;;3.50;98.87;97055.53;4972902;28;102977;-67
2022/04/01 10:52:05;;;;;;;8.88;8.18;;;;;;;3.59;99.57;97049.69;4956140;28;103516;-69
2022/04/01 10:54:37;;;;;;;5.45;5.05;;;;;;;3.81;100.00;97049.84;4972868;28;103753;-67
2022/04/01 10:57:07;;;;;;;6.18;5.72;;;;;;;4.08;99.92;97053.06;4972480;28;103168;-68
2022/04/01 10:59:40;;;;;;;5.87;5.37;;;;;;;3.50;100.00;97043.34;4969962;28;102970;-68
2022/04/01 11:02:13;;;;;;;7.25;6.63;;;;;;;3.67;100.00;97057.81;4974224;28;103312;-68
2022/04/01 11:04:43;;;;;;;7.78;7.07;;;;;;;3.76;100.00;97053.72;4960478;28;103229;-67
2022/04/01 11:07:14;;;;;;;6.20;5.70;;;;;;;3.49;100.00;97059.09;4939980;28;104421;-67
2022/04/01 11:09:46;;;;;;;8.15;7.45;;;;;;;3.73;100.00;97062.59;4967446;28;102781;-66
2022/04/01 11:12:34;;;;;;;6.50;6.03;;;;;;;4.08;100.00;97058.31;4969317;28;104061;-67
2022/04/01 11:15:25;;;;;;;5.10;4.70;;;;;;;3.31;100.00;97073.44;4970858;28;104114;-67
2022/04/01 11:18:09;;;;;;;6.53;6.03;;;;;;;3.47;100.00;97071.41;4968915;28;102859;-67
2022/04/01 11:20:40;;;;;;;5.85;5.45;;;;;;;3.19;100.00;97072.50;4961219;28;103975;-67
2022/04/01 11:23:14;;;;;;;5.78;5.38;;;;;;;3.40;100.00;97070.16;4970390;28;104506;-68
2022/04/01 11:25:59;;;;;;;4.70;4.40;;;;;;;3.15;100.00;97078.00;4963622;28;102988;-66
2022/04/01 11:28:30;;;;;;;5.85;5.45;;;;;;;3.27;100.00;97071.94;4955637;28;103206;-66
2022/04/01 11:31:17;;;;;;;4.88;4.47;;;;;;;3.62;100.00;97075.56;4968611;28;102963;-66
2022/04/01 11:34:01;;;;;;;5.80;5.35;;;;;;;3.37;99.87;97080.81;4965217;28;103344;-66
2022/04/01 11:36:31;;;;;;;5.20;4.80;;;;;;;3.53;100.00;97078.84;4967431;28;104096;-66
2022/04/01 11:39:00;;;;;;;5.47;5.07;;;;;;;3.91;99.58;97076.13;4968279;28;102784;-67
2022/04/01 11:41:46;;;;;;;5.33;4.93;;;;;;;3.54;100.00;97080.47;4958909;28;102788;-67
2022/04/01 11:44:16;;;;;;;5.60;5.20;;;;;;;3.54;100.00;97085.69;4963069;28;102962;-67
2022/04/01 11:46:58;;;;;;;5.38;4.97;;;;;;;3.26;100.00;97093.75;4965048;28;103207;-66
2022/04/01 11:49:29;;;;;;;5.90;5.50;;;;;;;3.56;100.00;97086.47;4965718;28;102737;-66
2022/04/01 11:51:58;;;;;;;5.83;5.43;;;;;;;3.58;100.00;97087.19;4956876;28;103099;-66
2022/04/01 11:54:26;;;;;;;6.00;5.50;;;;;;;3.75;100.00;97081.59;4962667;28;104226;-66
2022/04/01 11:56:55;;;;;;;5.90;5.43;;;;;;;4.10;99.18;97086.94;4969182;28;103224;-66
2022/04/01 11:59:26;;;;;;;5.95;5.55;;;;;;;3.29;100.00;97090.94;4964521;28;102788;-66
2022/04/01 12:02:09;;;;;;;6.07;5.63;;;;;;;3.29;100.00;97093.56;4964894;28;104558;-67
2022/04/01 12:04:39;;;;;;;6.77;6.27;;;;;;;3.31;100.00;97105.56;4970669;28;103241;-66